sensor_id;sensor_type;location;lat;lon;timestamp;pressure;altitude;pressure_sealevel;temperature;humidity
61039;BME280;46919;45.816;3.104;2023-05-25T00:01:38;97984.38;;;12.11;58.52
61039;BME280;46919;45.816;3.104;2023-05-25T00:04:08;97984.25;;;12.06;58.44
61039;BME280;46919;45.816;3.104;2023-05-25T00:06:34;97975.38;;;11.99;59.30
61039;BME280;46919;45.816;3.104;2023-05-25T00:09:01;97972.16;;;11.90;58.82
61039;BME280;46919;45.816;3.104;2023-05-25T00:11:27;97967.66;;;11.84;58.96
61039;BME280;46919;45.816;3.104;2023-05-25T00:13:53;97966.84;;;11.83;59.20
61039;BME280;46919;45.816;3.104;2023-05-25T00:16:18;97970.09;;;11.73;59.93
61039;BME280;46919;45.816;3.104;2023-05-25T00:18:44;97966.22;;;11.69;59.95
61039;BME280;46919;45.816;3.104;2023-05-25T00:21:13;97958.31;;;11.68;60.25
61039;BME280;46919;45.816;3.104;2023-05-25T00:23:40;97956.31;;;11.63;60.49
61039;BME280;46919;45.816;3.104;2023-05-25T00:26:05;97958.03;;;11.57;60.92
61039;BME280;46919;45.816;3.104;2023-05-25T00:28:30;97966.16;;;11.57;60.83
61039;BME280;46919;45.816;3.104;2023-05-25T00:30:56;97965.56;;;11.55;60.87
61039;BME280;46919;45.816;3.104;2023-05-25T00:33:21;97954.16;;;11.53;60.96
61039;BME280;46919;45.816;3.104;2023-05-25T00:35:47;97962.03;;;11.55;61.32
61039;BME280;46919;45.816;3.104;2023-05-25T00:38:13;97960.25;;;11.49;61.92
61039;BME280;46919;45.816;3.104;2023-05-25T00:40:39;97961.38;;;11.41;62.10
61039;BME280;46919;45.816;3.104;2023-05-25T00:43:07;97970.56;;;11.40;62.84
61039;BME280;46919;45.816;3.104;2023-05-25T00:45:33;97969.16;;;11.37;62.36
61039;BME280;46919;45.816;3.104;2023-05-25T00:47:59;97975.47;;;11.31;62.61
61039;BME280;46919;45.816;3.104;2023-05-25T00:50:43;97965.56;;;11.25;63.26
61039;BME280;46919;45.816;3.104;2023-05-25T00:53:11;97967.22;;;11.26;63.21
61039;BME280;46919;45.816;3.104;2023-05-25T00:55:59;97962.72;;;11.20;63.62
61039;BME280;46919;45.816;3.104;2023-05-25T00:58:30;97960.91;;;11.14;63.62
61039;BME280;46919;45.816;3.104;2023-05-25T01:00:58;97956.19;;;11.09;64.70
61039;BME280;46919;45.816;3.104;2023-05-25T01:03:24;97956.25;;;11.02;64.45
61039;BME280;46919;45.816;3.104;2023-05-25T01:05:54;97954.97;;;11.05;64.16
61039;BME280;46919;45.816;3.104;2023-05-25T01:08:22;97957.22;;;11.08;65.13
61039;BME280;46919;45.816;3.104;2023-05-25T01:10:49;97963.75;;;11.00;65.10
61039;BME280;46919;45.816;3.104;2023-05-25T01:13:17;97954.75;;;10.88;65.41
61039;BME280;46919;45.816;3.104;2023-05-25T01:15:44;97956.84;;;10.86;65.88
61039;BME280;46919;45.816;3.104;2023-05-25T01:18:12;97956.47;;;10.82;66.33
61039;BME280;46919;45.816;3.104;2023-05-25T01:23:25;97964.56;;;10.64;66.97
61039;BME280;46919;45.816;3.104;2023-05-25T01:25:56;97961.78;;;10.52;67.91
61039;BME280;46919;45.816;3.104;2023-05-25T01:28:40;97964.38;;;10.40;68.88
61039;BME280;46919;45.816;3.104;2023-05-25T01:31:06;97960.25;;;10.38;69.26
61039;BME280;46919;45.816;3.104;2023-05-25T01:33:34;97952.88;;;10.45;68.98
61039;BME280;46919;45.816;3.104;2023-05-25T01:36:00;97968.38;;;10.56;68.65
61039;BME280;46919;45.816;3.104;2023-05-25T01:38:26;97968.34;;;10.63;68.02
61039;BME280;46919;45.816;3.104;2023-05-25T01:40:51;97970.19;;;10.62;67.89
61039;BME280;46919;45.816;3.104;2023-05-25T01:43:16;97974.91;;;10.67;67.41
61039;BME280;46919;45.816;3.104;2023-05-25T01:45:42;97975.06;;;10.72;67.35
61039;BME280;46919;45.816;3.104;2023-05-25T01:48:34;97973.22;;;10.73;67.37
61039;BME280;46919;45.816;3.104;2023-05-25T01:51:08;97964.72;;;10.69;67.49
61039;BME280;46919;45.816;3.104;2023-05-25T01:53:38;97969.16;;;10.63;67.60
61039;BME280;46919;45.816;3.104;2023-05-25T01:56:08;97966.66;;;10.62;67.94
61039;BME280;46919;45.816;3.104;2023-05-25T01:58:38;97966.88;;;10.60;68.26
61039;BME280;46919;45.816;3.104;2023-05-25T02:01:09;97968.38;;;10.56;69.21
61039;BME280;46919;45.816;3.104;2023-05-25T02:03:37;97973.19;;;10.54;69.20
61039;BME280;46919;45.816;3.104;2023-05-25T02:06:02;97968.84;;;10.53;69.08
61039;BME280;46919;45.816;3.104;2023-05-25T02:08:28;97975.13;;;10.47;69.39
61039;BME280;46919;45.816;3.104;2023-05-25T02:10:53;97974.28;;;10.46;69.69
61039;BME280;46919;45.816;3.104;2023-05-25T02:13:19;97976.03;;;10.41;69.62
61039;BME280;46919;45.816;3.104;2023-05-25T02:15:44;97968.50;;;10.43;69.64
61039;BME280;46919;45.816;3.104;2023-05-25T02:18:10;97968.13;;;10.39;69.83
61039;BME280;46919;45.816;3.104;2023-05-25T02:20:38;97961.06;;;10.38;69.70
61039;BME280;46919;45.816;3.104;2023-05-25T02:23:03;97961.53;;;10.28;70.14
61039;BME280;46919;45.816;3.104;2023-05-25T02:25:28;97956.19;;;10.22;70.89
61039;BME280;46919;45.816;3.104;2023-05-25T02:27:54;97958.25;;;10.26;70.55
61039;BME280;46919;45.816;3.104;2023-05-25T02:30:19;97959.28;;;10.25;70.58
61039;BME280;46919;45.816;3.104;2023-05-25T02:32:45;97949.78;;;10.16;70.76
61039;BME280;46919;45.816;3.104;2023-05-25T02:35:10;97957.13;;;10.09;71.10
61039;BME280;46919;45.816;3.104;2023-05-25T02:37:36;97943.41;;;10.10;71.34
61039;BME280;46919;45.816;3.104;2023-05-25T02:40:01;97949.03;;;10.09;71.16
61039;BME280;46919;45.816;3.104;2023-05-25T02:42:28;97950.66;;;10.10;71.00
61039;BME280;46919;45.816;3.104;2023-05-25T02:44:53;97940.94;;;10.09;71.01
61039;BME280;46919;45.816;3.104;2023-05-25T02:47:18;97930.72;;;10.11;70.63
61039;BME280;46919;45.816;3.104;2023-05-25T02:49:44;97947.00;;;10.04;71.25
61039;BME280;46919;45.816;3.104;2023-05-25T02:52:10;97951.31;;;10.05;71.29
61039;BME280;46919;45.816;3.104;2023-05-25T02:54:35;97939.56;;;10.00;71.28
61039;BME280;46919;45.816;3.104;2023-05-25T02:57:02;97940.25;;;9.88;71.62
61039;BME280;46919;45.816;3.104;2023-05-25T02:59:28;97945.25;;;9.85;71.81
61039;BME280;46919;45.816;3.104;2023-05-25T03:01:53;97949.41;;;9.87;72.16
61039;BME280;46919;45.816;3.104;2023-05-25T03:04:18;97944.00;;;9.87;72.14
61039;BME280;46919;45.816;3.104;2023-05-25T03:06:44;97947.94;;;9.91;72.30
61039;BME280;46919;45.816;3.104;2023-05-25T03:09:11;97941.31;;;9.87;71.95
61039;BME280;46919;45.816;3.104;2023-05-25T03:11:36;97932.88;;;9.77;72.45
61039;BME280;46919;45.816;3.104;2023-05-25T03:14:01;97929.53;;;9.75;72.35
61039;BME280;46919;45.816;3.104;2023-05-25T03:16:27;97934.94;;;9.75;72.75
61039;BME280;46919;45.816;3.104;2023-05-25T03:18:52;97925.38;;;9.79;72.35
61039;BME280;46919;45.816;3.104;2023-05-25T03:21:18;97924.16;;;9.75;72.77
61039;BME280;46919;45.816;3.104;2023-05-25T03:23:43;97925.88;;;9.69;72.79
61039;BME280;46919;45.816;3.104;2023-05-25T03:26:09;97925.06;;;9.62;73.06
61039;BME280;46919;45.816;3.104;2023-05-25T03:28:35;97924.09;;;9.56;73.71
61039;BME280;46919;45.816;3.104;2023-05-25T03:31:00;97920.38;;;9.51;73.54
61039;BME280;46919;45.816;3.104;2023-05-25T03:33:25;97926.03;;;9.42;73.98
61039;BME280;46919;45.816;3.104;2023-05-25T03:35:51;97920.69;;;9.36;74.51
61039;BME280;46919;45.816;3.104;2023-05-25T03:38:16;97915.72;;;9.33;74.54
61039;BME280;46919;45.816;3.104;2023-05-25T03:40:42;97920.69;;;9.29;74.71
61039;BME280;46919;45.816;3.104;2023-05-25T03:43:07;97919.88;;;9.29;74.92
61039;BME280;46919;45.816;3.104;2023-05-25T03:45:32;97926.06;;;9.36;74.40
61039;BME280;46919;45.816;3.104;2023-05-25T03:47:58;97923.19;;;9.31;74.57
61039;BME280;46919;45.816;3.104;2023-05-25T03:50:23;97928.56;;;9.31;74.78
61039;BME280;46919;45.816;3.104;2023-05-25T03:52:49;97922.56;;;9.29;74.83
61039;BME280;46919;45.816;3.104;2023-05-25T03:55:14;97921.75;;;9.28;74.78
61039;BME280;46919;45.816;3.104;2023-05-25T03:57:41;97924.03;;;9.24;74.91
61039;BME280;46919;45.816;3.104;2023-05-25T04:00:07;97928.59;;;9.24;75.26
61039;BME280;46919;45.816;3.104;2023-05-25T04:02:35;97923.81;;;9.26;75.42
61039;BME280;46919;45.816;3.104;2023-05-25T04:05:02;97919.50;;;9.25;75.08
61039;BME280;46919;45.816;3.104;2023-05-25T04:07:27;97914.31;;;9.23;75.04
61039;BME280;46919;45.816;3.104;2023-05-25T04:09:55;97917.88;;;9.17;75.14
61039;BME280;46919;45.816;3.104;2023-05-25T04:12:23;97912.91;;;9.14;75.62
61039;BME280;46919;45.816;3.104;2023-05-25T04:14:49;97906.47;;;9.15;75.69
61039;BME280;46919;45.816;3.104;2023-05-25T04:17:15;97899.97;;;9.23;75.42
61039;BME280;46919;45.816;3.104;2023-05-25T04:19:41;97894.63;;;9.16;75.43
61039;BME280;46919;45.816;3.104;2023-05-25T04:22:07;97901.09;;;9.15;75.55
61039;BME280;46919;45.816;3.104;2023-05-25T04:24:32;97902.16;;;9.07;75.95
61039;BME280;46919;45.816;3.104;2023-05-25T04:26:58;97894.72;;;9.03;76.43
61039;BME280;46919;45.816;3.104;2023-05-25T04:29:24;97892.22;;;9.01;76.26
61039;BME280;46919;45.816;3.104;2023-05-25T04:31:49;97897.44;;;8.89;77.00
61039;BME280;46919;45.816;3.104;2023-05-25T04:34:15;97906.56;;;8.95;76.77
61039;BME280;46919;45.816;3.104;2023-05-25T04:36:41;97906.31;;;9.03;76.46
61039;BME280;46919;45.816;3.104;2023-05-25T04:39:08;97909.00;;;9.03;76.26
61039;BME280;46919;45.816;3.104;2023-05-25T04:41:34;97911.28;;;9.06;76.64
61039;BME280;46919;45.816;3.104;2023-05-25T04:44:00;97912.91;;;9.14;75.99
61039;BME280;46919;45.816;3.104;2023-05-25T04:46:25;97913.94;;;9.13;76.14
61039;BME280;46919;45.816;3.104;2023-05-25T04:48:51;97913.72;;;9.15;76.26
61039;BME280;46919;45.816;3.104;2023-05-25T04:51:16;97910.41;;;9.13;75.97
61039;BME280;46919;45.816;3.104;2023-05-25T04:53:42;97913.94;;;9.13;76.50
61039;BME280;46919;45.816;3.104;2023-05-25T04:56:07;97924.13;;;9.11;76.33
61039;BME280;46919;45.816;3.104;2023-05-25T04:58:33;97924.06;;;9.18;76.42
61039;BME280;46919;45.816;3.104;2023-05-25T05:00:58;97921.72;;;9.35;75.55
61039;BME280;46919;45.816;3.104;2023-05-25T05:03:24;97925.13;;;9.55;74.79
61039;BME280;46919;45.816;3.104;2023-05-25T05:05:49;97932.13;;;9.63;74.66
61039;BME280;46919;45.816;3.104;2023-05-25T05:08:15;97926.09;;;9.68;74.57
61039;BME280;46919;45.816;3.104;2023-05-25T05:10:40;97934.88;;;9.82;74.18
61039;BME280;46919;45.816;3.104;2023-05-25T05:13:06;97943.72;;;9.95;73.99
61039;BME280;46919;45.816;3.104;2023-05-25T05:15:31;97939.88;;;10.10;73.77
61039;BME280;46919;45.816;3.104;2023-05-25T05:17:57;97948.75;;;10.17;73.35
61039;BME280;46919;45.816;3.104;2023-05-25T05:20:23;97956.72;;;10.30;72.91
61039;BME280;46919;45.816;3.104;2023-05-25T05:22:48;97954.41;;;10.41;72.73
61039;BME280;46919;45.816;3.104;2023-05-25T05:25:14;97951.41;;;10.49;72.47
61039;BME280;46919;45.816;3.104;2023-05-25T05:27:39;97956.81;;;10.49;72.76
61039;BME280;46919;45.816;3.104;2023-05-25T05:30:05;97951.56;;;10.54;71.97
61039;BME280;46919;45.816;3.104;2023-05-25T05:32:31;97963.75;;;10.63;71.68
61039;BME280;46919;45.816;3.104;2023-05-25T05:34:57;97955.56;;;10.70;71.43
61039;BME280;46919;45.816;3.104;2023-05-25T05:37:22;97950.53;;;10.74;71.36
61039;BME280;46919;45.816;3.104;2023-05-25T05:39:48;97954.00;;;10.81;70.99
61039;BME280;46919;45.816;3.104;2023-05-25T05:42:13;97959.09;;;10.89;71.14
61039;BME280;46919;45.816;3.104;2023-05-25T05:44:38;97960.53;;;10.92;70.19
61039;BME280;46919;45.816;3.104;2023-05-25T05:47:04;97960.31;;;10.93;70.83
61039;BME280;46919;45.816;3.104;2023-05-25T05:49:30;97961.28;;;10.99;70.83
61039;BME280;46919;45.816;3.104;2023-05-25T05:51:56;97957.75;;;10.98;71.08
61039;BME280;46919;45.816;3.104;2023-05-25T05:54:22;97950.69;;;10.97;71.10
61039;BME280;46919;45.816;3.104;2023-05-25T05:56:47;97950.09;;;10.95;70.80
61039;BME280;46919;45.816;3.104;2023-05-25T05:59:12;97950.69;;;10.97;70.42
61039;BME280;46919;45.816;3.104;2023-05-25T06:01:38;97952.03;;;11.06;70.42
61039;BME280;46919;45.816;3.104;2023-05-25T06:04:07;97951.94;;;11.13;70.35
61039;BME280;46919;45.816;3.104;2023-05-25T06:06:32;97949.00;;;11.15;69.96
61039;BME280;46919;45.816;3.104;2023-05-25T06:08:59;97964.50;;;11.08;69.89
61039;BME280;46919;45.816;3.104;2023-05-25T06:11:27;97960.28;;;11.12;69.92
61039;BME280;46919;45.816;3.104;2023-05-25T06:13:53;97955.81;;;11.05;69.81
61039;BME280;46919;45.816;3.104;2023-05-25T06:16:18;97960.75;;;11.09;69.86
61039;BME280;46919;45.816;3.104;2023-05-25T06:18:44;97975.78;;;11.04;70.22
61039;BME280;46919;45.816;3.104;2023-05-25T06:21:10;97974.44;;;11.14;70.54
61039;BME280;46919;45.816;3.104;2023-05-25T06:23:35;97977.28;;;11.19;70.64
61039;BME280;46919;45.816;3.104;2023-05-25T06:26:04;97985.25;;;11.14;70.28
61039;BME280;46919;45.816;3.104;2023-05-25T06:28:30;97984.03;;;11.28;70.33
61039;BME280;46919;45.816;3.104;2023-05-25T06:30:56;97996.88;;;11.33;70.47
61039;BME280;46919;45.816;3.104;2023-05-25T06:33:22;97993.63;;;11.42;70.19
61039;BME280;46919;45.816;3.104;2023-05-25T06:35:47;97996.47;;;11.48;70.46
61039;BME280;46919;45.816;3.104;2023-05-25T06:38:13;97998.88;;;11.56;69.97
61039;BME280;46919;45.816;3.104;2023-05-25T06:40:39;97999.94;;;11.55;70.11
61039;BME280;46919;45.816;3.104;2023-05-25T06:43:04;97993.38;;;11.63;70.06
61039;BME280;46919;45.816;3.104;2023-05-25T06:45:30;97988.78;;;11.63;69.22
61039;BME280;46919;45.816;3.104;2023-05-25T06:47:55;97986.09;;;11.45;69.15
61039;BME280;46919;45.816;3.104;2023-05-25T06:50:21;97992.44;;;11.38;69.75
61039;BME280;46919;45.816;3.104;2023-05-25T06:52:47;97985.59;;;11.36;69.31
61039;BME280;46919;45.816;3.104;2023-05-25T06:55:12;97984.47;;;11.44;69.54
61039;BME280;46919;45.816;3.104;2023-05-25T06:57:37;97989.44;;;11.47;69.02
61039;BME280;46919;45.816;3.104;2023-05-25T07:00:03;97996.69;;;11.46;69.65
61039;BME280;46919;45.816;3.104;2023-05-25T07:02:32;97994.22;;;11.63;69.62
61039;BME280;46919;45.816;3.104;2023-05-25T07:04:58;97990.34;;;11.71;69.46
61039;BME280;46919;45.816;3.104;2023-05-25T07:07:24;97991.47;;;11.82;68.71
61039;BME280;46919;45.816;3.104;2023-05-25T07:09:49;97977.97;;;11.93;68.43
61039;BME280;46919;45.816;3.104;2023-05-25T07:12:15;97979.75;;;12.00;68.90
61039;BME280;46919;45.816;3.104;2023-05-25T07:14:40;97983.19;;;12.07;68.60
61039;BME280;46919;45.816;3.104;2023-05-25T07:17:06;97978.59;;;12.07;68.23
61039;BME280;46919;45.816;3.104;2023-05-25T07:19:31;97989.78;;;11.99;67.64
61039;BME280;46919;45.816;3.104;2023-05-25T07:21:56;97985.41;;;11.98;67.75
61039;BME280;46919;45.816;3.104;2023-05-25T07:24:22;97983.75;;;11.97;68.02
61039;BME280;46919;45.816;3.104;2023-05-25T07:26:47;97995.09;;;12.06;67.58
61039;BME280;46919;45.816;3.104;2023-05-25T07:29:13;97991.75;;;11.92;67.18
61039;BME280;46919;45.816;3.104;2023-05-25T07:31:39;97991.00;;;11.85;67.17
61039;BME280;46919;45.816;3.104;2023-05-25T07:34:04;97987.09;;;11.81;67.06
61039;BME280;46919;45.816;3.104;2023-05-25T07:36:30;97989.16;;;11.97;66.66
61039;BME280;46919;45.816;3.104;2023-05-25T07:38:56;97992.38;;;12.18;66.65
61039;BME280;46919;45.816;3.104;2023-05-25T07:41:22;98002.41;;;12.29;66.64
61039;BME280;46919;45.816;3.104;2023-05-25T07:43:47;98000.09;;;12.44;66.96
61039;BME280;46919;45.816;3.104;2023-05-25T07:46:13;97996.81;;;12.42;66.70
61039;BME280;46919;45.816;3.104;2023-05-25T07:48:40;98012.59;;;12.45;66.66
61039;BME280;46919;45.816;3.104;2023-05-25T07:51:05;98012.97;;;12.73;66.46
61039;BME280;46919;45.816;3.104;2023-05-25T07:53:31;98003.19;;;12.83;65.22
61039;BME280;46919;45.816;3.104;2023-05-25T07:55:56;98004.34;;;12.87;64.75
61039;BME280;46919;45.816;3.104;2023-05-25T07:58:22;98007.78;;;12.95;64.43
61039;BME280;46919;45.816;3.104;2023-05-25T08:00:47;98007.41;;;13.03;64.43
61039;BME280;46919;45.816;3.104;2023-05-25T08:03:14;98014.72;;;12.91;64.43
61039;BME280;46919;45.816;3.104;2023-05-25T08:05:39;98017.44;;;12.79;64.03
61039;BME280;46919;45.816;3.104;2023-05-25T08:08:05;98028.41;;;12.48;65.41
61039;BME280;46919;45.816;3.104;2023-05-25T08:10:30;98023.56;;;12.50;65.70
61039;BME280;46919;45.816;3.104;2023-05-25T08:12:56;98018.22;;;12.32;65.71
61039;BME280;46919;45.816;3.104;2023-05-25T08:15:22;98015.16;;;12.17;65.72
61039;BME280;46919;45.816;3.104;2023-05-25T08:17:48;98015.03;;;12.23;65.69
61039;BME280;46919;45.816;3.104;2023-05-25T08:20:15;98003.84;;;12.43;65.50
61039;BME280;46919;45.816;3.104;2023-05-25T08:22:41;98006.34;;;12.57;65.05
61039;BME280;46919;45.816;3.104;2023-05-25T08:25:07;98002.34;;;12.71;64.11
61039;BME280;46919;45.816;3.104;2023-05-25T08:27:33;98004.94;;;12.78;64.14
61039;BME280;46919;45.816;3.104;2023-05-25T08:29:58;97999.63;;;12.95;63.43
61039;BME280;46919;45.816;3.104;2023-05-25T08:32:24;98005.06;;;12.95;63.58
61039;BME280;46919;45.816;3.104;2023-05-25T08:34:49;97995.25;;;12.94;63.47
61039;BME280;46919;45.816;3.104;2023-05-25T08:37:15;98003.16;;;13.07;63.70
61039;BME280;46919;45.816;3.104;2023-05-25T08:39:40;98003.63;;;13.04;63.45
61039;BME280;46919;45.816;3.104;2023-05-25T08:42:06;98001.47;;;13.18;63.49
61039;BME280;46919;45.816;3.104;2023-05-25T08:44:34;97987.78;;;13.36;63.12
61039;BME280;46919;45.816;3.104;2023-05-25T08:47:04;97980.09;;;13.45;61.72
61039;BME280;46919;45.816;3.104;2023-05-25T08:49:33;97987.38;;;13.56;61.98
61039;BME280;46919;45.816;3.104;2023-05-25T08:51:59;97975.78;;;13.61;61.44
61039;BME280;46919;45.816;3.104;2023-05-25T08:54:28;97989.69;;;13.65;61.39
61039;BME280;46919;45.816;3.104;2023-05-25T08:57:04;97982.19;;;13.84;61.02
61039;BME280;46919;45.816;3.104;2023-05-25T09:02:33;97972.09;;;14.30;59.36
61039;BME280;46919;45.816;3.104;2023-05-25T09:05:01;97986.59;;;14.53;59.46
61039;BME280;46919;45.816;3.104;2023-05-25T09:07:27;97992.31;;;14.68;59.61
61039;BME280;46919;45.816;3.104;2023-05-25T09:09:54;97991.72;;;14.83;59.01
61039;BME280;46919;45.816;3.104;2023-05-25T09:12:21;97995.81;;;14.85;57.72
61039;BME280;46919;45.816;3.104;2023-05-25T09:14:46;97999.41;;;14.69;57.57
61039;BME280;46919;45.816;3.104;2023-05-25T09:17:15;98013.44;;;14.61;58.16
61039;BME280;46919;45.816;3.104;2023-05-25T09:19:42;98012.41;;;14.50;59.42
61039;BME280;46919;45.816;3.104;2023-05-25T09:22:07;98005.72;;;14.58;59.23
61039;BME280;46919;45.816;3.104;2023-05-25T09:24:34;98011.66;;;14.72;59.57
61039;BME280;46919;45.816;3.104;2023-05-25T09:27:01;97997.50;;;14.70;58.23
61039;BME280;46919;45.816;3.104;2023-05-25T09:29:27;98008.69;;;14.56;58.59
61039;BME280;46919;45.816;3.104;2023-05-25T09:31:53;98010.53;;;14.67;59.11
61039;BME280;46919;45.816;3.104;2023-05-25T09:34:18;98007.63;;;14.91;58.65
61039;BME280;46919;45.816;3.104;2023-05-25T09:36:44;98012.63;;;14.99;57.91
61039;BME280;46919;45.816;3.104;2023-05-25T09:39:10;98007.19;;;14.99;58.33
61039;BME280;46919;45.816;3.104;2023-05-25T09:41:37;98013.50;;;15.05;57.96
61039;BME280;46919;45.816;3.104;2023-05-25T09:44:05;98001.63;;;15.11;57.81
61039;BME280;46919;45.816;3.104;2023-05-25T09:46:30;98007.66;;;15.13;57.19
61039;BME280;46919;45.816;3.104;2023-05-25T09:49:02;98016.44;;;15.20;57.42
61039;BME280;46919;45.816;3.104;2023-05-25T09:51:29;98017.28;;;15.21;57.48
61039;BME280;46919;45.816;3.104;2023-05-25T09:53:58;98013.09;;;15.13;57.07
61039;BME280;46919;45.816;3.104;2023-05-25T09:56:26;98016.19;;;15.22;57.13
61039;BME280;46919;45.816;3.104;2023-05-25T09:58:52;98004.75;;;15.20;56.72
61039;BME280;46919;45.816;3.104;2023-05-25T10:01:18;98007.72;;;15.18;57.11
61039;BME280;46919;45.816;3.104;2023-05-25T10:03:46;98010.72;;;15.39;57.85
61039;BME280;46919;45.816;3.104;2023-05-25T10:06:13;98016.72;;;15.63;55.59
61039;BME280;46919;45.816;3.104;2023-05-25T10:08:44;98013.13;;;15.57;56.00
61039;BME280;46919;45.816;3.104;2023-05-25T10:11:15;98015.97;;;15.90;56.51
61039;BME280;46919;45.816;3.104;2023-05-25T10:13:45;98012.31;;;16.06;55.56
61039;BME280;46919;45.816;3.104;2023-05-25T10:16:14;98025.84;;;15.96;55.62
61039;BME280;46919;45.816;3.104;2023-05-25T10:18:53;98029.13;;;15.98;55.34
61039;BME280;46919;45.816;3.104;2023-05-25T10:21:21;98028.88;;;16.00;55.82
61039;BME280;46919;45.816;3.104;2023-05-25T10:23:50;98028.22;;;16.15;55.63
61039;BME280;46919;45.816;3.104;2023-05-25T10:26:23;98025.69;;;16.35;56.27
61039;BME280;46919;45.816;3.104;2023-05-25T10:28:50;98029.81;;;16.43;54.67
61039;BME280;46919;45.816;3.104;2023-05-25T10:31:20;98033.53;;;16.32;54.91
61039;BME280;46919;45.816;3.104;2023-05-25T10:33:46;98029.91;;;16.53;54.62
61039;BME280;46919;45.816;3.104;2023-05-25T10:36:12;98028.88;;;16.59;55.13
61039;BME280;46919;45.816;3.104;2023-05-25T10:38:39;98024.28;;;16.65;54.90
61039;BME280;46919;45.816;3.104;2023-05-25T10:41:08;98030.75;;;16.86;54.78
61039;BME280;46919;45.816;3.104;2023-05-25T10:43:33;98024.06;;;16.39;54.44
61039;BME280;46919;45.816;3.104;2023-05-25T10:45:59;98038.69;;;16.28;55.64
61039;BME280;46919;45.816;3.104;2023-05-25T10:48:49;98033.91;;;16.40;55.43
61039;BME280;46919;45.816;3.104;2023-05-25T10:51:18;98037.91;;;16.65;55.72
61039;BME280;46919;45.816;3.104;2023-05-25T10:53:45;98043.38;;;16.65;55.38
61039;BME280;46919;45.816;3.104;2023-05-25T10:56:12;98039.50;;;16.88;54.32
61039;BME280;46919;45.816;3.104;2023-05-25T10:58:42;98042.06;;;17.05;54.66
61039;BME280;46919;45.816;3.104;2023-05-25T11:01:12;98034.91;;;17.42;54.08
61039;BME280;46919;45.816;3.104;2023-05-25T11:03:56;98037.03;;;17.29;53.15
61039;BME280;46919;45.816;3.104;2023-05-25T11:09:04;98048.13;;;17.12;55.43
61039;BME280;46919;45.816;3.104;2023-05-25T11:14:30;98035.38;;;17.33;54.60
61039;BME280;46919;45.816;3.104;2023-05-25T11:19:51;98050.94;;;17.28;54.09
61039;BME280;46919;45.816;3.104;2023-05-25T11:22:33;98051.56;;;17.40;53.83
61039;BME280;46919;45.816;3.104;2023-05-25T11:25:34;98048.63;;;17.09;52.85
61039;BME280;46919;45.816;3.104;2023-05-25T11:28:04;98052.66;;;16.96;54.21
61039;BME280;46919;45.816;3.104;2023-05-25T11:30:30;98048.84;;;17.40;54.01
61039;BME280;46919;45.816;3.104;2023-05-25T11:33:00;98044.31;;;17.71;52.73
61039;BME280;46919;45.816;3.104;2023-05-25T11:35:26;98051.53;;;17.98;53.71
61039;BME280;46919;45.816;3.104;2023-05-25T11:37:52;98054.84;;;18.00;54.17
61039;BME280;46919;45.816;3.104;2023-05-25T11:40:22;98055.16;;;18.19;52.95
61039;BME280;46919;45.816;3.104;2023-05-25T11:42:48;98056.59;;;18.53;52.63
61039;BME280;46919;45.816;3.104;2023-05-25T11:45:15;98057.38;;;18.38;52.62
61039;BME280;46919;45.816;3.104;2023-05-25T11:47:40;98049.75;;;18.60;51.73
61039;BME280;46919;45.816;3.104;2023-05-25T11:50:06;98050.84;;;18.90;53.45
61039;BME280;46919;45.816;3.104;2023-05-25T11:52:32;98056.56;;;19.19;51.39
61039;BME280;46919;45.816;3.104;2023-05-25T11:54:57;98038.16;;;19.35;50.59
61039;BME280;46919;45.816;3.104;2023-05-25T11:57:23;98046.94;;;19.37;51.14
61039;BME280;46919;45.816;3.104;2023-05-25T11:59:54;98041.31;;;19.79;51.11
61039;BME280;46919;45.816;3.104;2023-05-25T12:02:21;98050.53;;;19.98;50.33
61039;BME280;46919;45.816;3.104;2023-05-25T12:04:54;98054.38;;;20.02;48.88
61039;BME280;46919;45.816;3.104;2023-05-25T12:07:19;98051.09;;;19.95;50.03
61039;BME280;46919;45.816;3.104;2023-05-25T12:09:45;98048.94;;;19.97;50.71
61039;BME280;46919;45.816;3.104;2023-05-25T12:12:10;98035.84;;;19.79;50.46
61039;BME280;46919;45.816;3.104;2023-05-25T12:14:48;98043.09;;;19.28;50.55
61039;BME280;46919;45.816;3.104;2023-05-25T12:17:16;98042.88;;;18.83;51.50
61039;BME280;46919;45.816;3.104;2023-05-25T12:19:42;98042.06;;;18.62;52.34
61039;BME280;46919;45.816;3.104;2023-05-25T12:22:08;98050.84;;;18.85;53.12
61039;BME280;46919;45.816;3.104;2023-05-25T12:24:34;98050.19;;;19.40;51.90
61039;BME280;46919;45.816;3.104;2023-05-25T12:26:59;98043.50;;;19.82;50.48
61039;BME280;46919;45.816;3.104;2023-05-25T12:29:27;98038.28;;;20.35;50.09
61039;BME280;46919;45.816;3.104;2023-05-25T12:32:02;98031.19;;;20.63;49.19
61039;BME280;46919;45.816;3.104;2023-05-25T12:34:28;98020.59;;;20.86;48.85
61039;BME280;46919;45.816;3.104;2023-05-25T12:36:55;98037.81;;;20.97;48.97
61039;BME280;46919;45.816;3.104;2023-05-25T12:41:59;98041.16;;;20.89;47.86
61039;BME280;46919;45.816;3.104;2023-05-25T12:44:35;98043.03;;;20.59;48.11
61039;BME280;46919;45.816;3.104;2023-05-25T12:49:43;98033.63;;;21.29;47.53
61039;BME280;46919;45.816;3.104;2023-05-25T12:52:11;98030.41;;;21.22;46.99
61039;BME280;46919;45.816;3.104;2023-05-25T12:54:55;98034.94;;;21.61;46.36
61039;BME280;46919;45.816;3.104;2023-05-25T12:57:20;98037.09;;;21.88;46.08
61039;BME280;46919;45.816;3.104;2023-05-25T12:59:46;98037.25;;;21.97;46.17
61039;BME280;46919;45.816;3.104;2023-05-25T13:02:12;98050.06;;;22.25;45.50
61039;BME280;46919;45.816;3.104;2023-05-25T13:04:39;98046.91;;;22.70;44.87
61039;BME280;46919;45.816;3.104;2023-05-25T13:07:07;98046.31;;;23.06;44.27
61039;BME280;46919;45.816;3.104;2023-05-25T13:09:33;98062.19;;;23.14;44.05
61039;BME280;46919;45.816;3.104;2023-05-25T13:11:59;98060.25;;;23.15;43.26
61039;BME280;46919;45.816;3.104;2023-05-25T13:14:27;98060.78;;;22.98;43.73
61039;BME280;46919;45.816;3.104;2023-05-25T13:16:54;98058.84;;;23.31;43.30
61039;BME280;46919;45.816;3.104;2023-05-25T13:19:23;98058.97;;;23.54;42.95
61039;BME280;46919;45.816;3.104;2023-05-25T13:21:49;98044.94;;;23.23;42.16